createdAt,value
2018-05-12T00:00:56.904Z,10.91
2018-05-12T00:03:25.168Z,10.90
2018-05-12T00:05:53.453Z,10.84
2018-05-12T00:08:22.455Z,10.79
2018-05-12T00:10:50.725Z,10.86
2018-05-12T00:13:18.975Z,10.97
2018-05-12T00:15:47.248Z,10.78
2018-05-12T00:18:15.503Z,10.75
2018-05-12T00:20:43.775Z,10.69
2018-05-12T00:23:12.036Z,10.65
2018-05-12T00:25:40.294Z,10.63
2018-05-12T00:28:09.316Z,10.50
2018-05-12T00:30:37.579Z,10.52
2018-05-12T00:33:07.843Z,10.39
2018-05-12T00:35:36.102Z,10.26
2018-05-12T00:38:04.361Z,10.22
2018-05-12T00:40:33.391Z,10.47
2018-05-12T00:43:01.660Z,10.25
2018-05-12T00:45:31.926Z,10.16
2018-05-12T00:48:00.186Z,10.06
2018-05-12T00:50:28.439Z,10.02
2018-05-12T00:52:56.694Z,10.00
2018-05-12T00:55:25.728Z,9.97
2018-05-12T00:57:54.005Z,10.04
2018-05-12T01:00:22.258Z,9.93
2018-05-12T01:02:51.300Z,9.85
2018-05-12T01:05:19.567Z,10.07
2018-05-12T01:07:47.827Z,9.78
2018-05-12T01:10:16.857Z,9.68
2018-05-12T01:12:45.108Z,9.61
2018-05-12T01:15:14.139Z,9.56
2018-05-12T01:17:42.382Z,9.50
2018-05-12T01:20:11.413Z,9.48
2018-05-12T01:22:39.669Z,9.43
2018-05-12T01:25:07.932Z,9.40
2018-05-12T01:27:36.943Z,9.38
2018-05-12T01:30:05.202Z,9.39
2018-05-12T01:32:33.454Z,9.41
2018-05-12T01:35:01.711Z,9.39
2018-05-12T01:37:29.956Z,9.54
2018-05-12T01:39:58.983Z,9.49
2018-05-12T01:42:27.234Z,9.51
2018-05-12T01:44:56.264Z,9.55
2018-05-12T01:47:24.512Z,9.61
2018-05-12T01:49:53.539Z,9.70
2018-05-12T01:52:21.787Z,9.72
2018-05-12T01:54:50.814Z,9.75
2018-05-12T01:57:19.059Z,9.69
2018-05-12T01:59:48.263Z,9.66
2018-05-12T02:02:17.293Z,9.61
2018-05-12T02:04:45.536Z,9.57
2018-05-12T02:07:13.783Z,9.61
2018-05-12T02:09:42.035Z,9.61
2018-05-12T02:12:10.293Z,9.54
2018-05-12T02:14:39.303Z,9.55
2018-05-12T02:17:07.563Z,9.55
2018-05-12T02:19:36.573Z,9.51
2018-05-12T02:22:04.840Z,9.46
2018-05-12T02:24:33.847Z,9.45
2018-05-12T02:27:02.106Z,9.46
2018-05-12T02:29:31.136Z,9.47
2018-05-12T02:31:59.507Z,9.45
2018-05-12T02:34:28.670Z,9.50
2018-05-12T02:36:56.916Z,9.52
2018-05-12T02:39:25.159Z,9.54
2018-05-12T02:41:54.187Z,9.61
2018-05-12T02:44:22.435Z,9.60
2018-05-12T02:46:51.452Z,9.61
2018-05-12T02:49:20.451Z,9.58
2018-05-12T02:51:48.722Z,9.55
2018-05-12T02:54:17.720Z,9.52
2018-05-12T02:56:46.733Z,9.52
2018-05-12T02:59:14.991Z,9.53
2018-05-12T03:01:44.019Z,9.58
2018-05-12T03:04:12.989Z,9.59
2018-05-12T03:06:41.275Z,9.65
2018-05-12T03:09:10.347Z,9.66
2018-05-12T03:11:38.539Z,9.72
2018-05-12T03:14:07.548Z,10.03
2018-05-12T03:16:35.801Z,9.91
2018-05-12T03:19:04.039Z,9.91
2018-05-12T03:21:32.333Z,9.92
2018-05-12T03:24:01.302Z,9.95
2018-05-12T03:26:29.563Z,9.94
2018-05-12T03:28:58.576Z,9.96
2018-05-12T03:31:26.843Z,10.09
2018-05-12T03:33:55.857Z,10.11
2018-05-12T03:36:25.055Z,10.12
2018-05-12T03:38:53.315Z,10.08
2018-05-12T03:41:22.332Z,10.10
2018-05-12T03:43:50.595Z,10.11
2018-05-12T03:46:19.620Z,10.17
2018-05-12T03:48:47.871Z,10.24
2018-05-12T03:51:16.912Z,10.29
2018-05-12T03:53:45.173Z,10.38
2018-05-12T03:56:13.415Z,10.38
2018-05-12T03:58:41.666Z,10.36
2018-05-12T04:01:09.920Z,10.43
2018-05-12T04:03:38.174Z,10.57
2018-05-12T04:06:24.807Z,10.62
2018-05-12T04:09:10.663Z,10.63
2018-05-12T04:11:56.487Z,10.68
2018-05-12T04:14:25.600Z,10.97
2018-05-12T04:16:53.820Z,10.89
2018-05-12T04:19:22.843Z,10.85
2018-05-12T04:21:51.100Z,10.78
2018-05-12T04:24:19.374Z,10.75
2018-05-12T04:26:48.407Z,10.70
2018-05-12T04:29:16.667Z,10.70
2018-05-12T04:31:44.926Z,10.75
2018-05-12T04:34:13.960Z,10.82
2018-05-12T04:36:42.212Z,10.83
2018-05-12T04:39:11.243Z,10.86
2018-05-12T04:41:39.505Z,10.93
2018-05-12T04:44:07.760Z,11.04
2018-05-12T04:46:36.772Z,11.12
2018-05-12T04:49:05.715Z,11.24
2018-05-12T04:51:33.975Z,11.43
2018-05-12T04:54:02.246Z,11.58
2018-05-12T04:56:30.503Z,11.75
2018-05-12T04:58:59.533Z,11.95
2018-05-12T05:01:27.779Z,12.16
2018-05-12T05:03:56.807Z,12.47
2018-05-12T05:06:25.066Z,12.71
2018-05-12T05:08:54.087Z,12.90
2018-05-12T05:11:22.345Z,13.07
2018-05-12T05:13:50.625Z,13.35
2018-05-12T05:16:19.643Z,13.60
2018-05-12T05:18:47.907Z,13.99
2018-05-12T05:21:17.159Z,15.06
2018-05-12T05:23:45.383Z,15.68
2018-05-12T05:26:14.400Z,16.13
2018-05-12T05:28:42.655Z,19.05
2018-05-12T05:31:11.679Z,18.93
2018-05-12T05:33:39.922Z,17.89
2018-05-12T05:36:08.963Z,17.15
2018-05-12T05:38:37.218Z,19.42
2018-05-12T05:41:06.253Z,19.17
2018-05-12T05:43:34.507Z,18.71
2018-05-12T05:46:02.763Z,20.29
2018-05-12T05:48:31.790Z,21.85
2018-05-12T05:51:00.042Z,21.21
2018-05-12T05:53:29.057Z,19.57
2018-05-12T05:55:57.317Z,18.93
2018-05-12T05:58:26.424Z,18.85
2018-05-12T06:00:54.606Z,19.45
2018-05-12T06:03:23.647Z,19.25
2018-05-12T06:05:51.917Z,20.61
2018-05-12T06:08:20.168Z,19.96
2018-05-12T06:10:48.445Z,19.48
2018-05-12T06:13:16.948Z,19.56
2018-05-12T06:15:45.217Z,23.69
2018-05-12T06:18:13.541Z,25.57
2018-05-12T06:20:41.724Z,24.99
2018-05-12T06:23:09.979Z,26.20
2018-05-12T06:25:38.249Z,28.00
2018-05-12T06:28:06.503Z,27.64
2018-05-12T06:30:35.535Z,24.47
2018-05-12T06:33:03.795Z,22.96
2018-05-12T06:35:32.821Z,22.78
2018-05-12T06:38:01.076Z,22.19
2018-05-12T06:40:29.340Z,22.12
2018-05-12T06:42:58.364Z,22.03
2018-05-12T06:45:26.636Z,22.55
2018-05-12T06:47:54.887Z,25.78
2018-05-12T06:50:23.924Z,28.25
2018-05-12T06:52:52.262Z,27.68
2018-05-12T06:55:21.255Z,26.24
2018-05-12T06:57:49.511Z,26.68
2018-05-12T07:00:17.796Z,26.39
2018-05-12T07:02:46.062Z,25.44
2018-05-12T07:05:14.325Z,27.26
2018-05-12T07:07:42.578Z,28.38
2018-05-12T07:10:11.616Z,30.32
2018-05-12T07:12:39.871Z,32.84
2018-05-12T07:15:09.512Z,33.74
2018-05-12T07:17:37.868Z,31.12
2018-05-12T07:20:06.149Z,31.29
2018-05-12T07:22:34.403Z,31.00
2018-05-12T07:25:03.451Z,31.87
2018-05-12T07:27:31.732Z,30.21
2018-05-12T07:29:59.977Z,31.03
2018-05-12T07:32:29.006Z,32.39
2018-05-12T07:34:57.280Z,32.26
2018-05-12T07:37:25.527Z,30.77
2018-05-12T07:39:54.568Z,31.39
2018-05-12T07:42:22.819Z,32.68
2018-05-12T07:44:51.940Z,33.78
2018-05-12T07:47:20.179Z,33.91
2018-05-12T07:49:48.438Z,32.60
2018-05-12T07:52:16.699Z,33.95
2018-05-12T07:54:44.943Z,33.52
2018-05-12T07:57:13.212Z,32.77
2018-05-12T07:59:42.218Z,30.29
2018-05-12T08:02:11.247Z,31.52
2018-05-12T08:04:39.503Z,32.46
2018-05-12T08:07:08.539Z,32.60
2018-05-12T08:09:36.797Z,31.02
2018-05-12T08:12:05.062Z,33.15
2018-05-12T08:14:33.319Z,33.83
2018-05-12T08:17:01.580Z,35.49
2018-05-12T08:19:29.838Z,34.77
2018-05-12T08:21:58.109Z,34.92
2018-05-12T08:24:26.357Z,35.52
2018-05-12T08:26:55.479Z,35.37
2018-05-12T08:29:24.662Z,34.71
2018-05-12T08:31:53.680Z,33.76
2018-05-12T08:34:21.932Z,34.72
2018-05-12T08:36:50.959Z,32.86
2018-05-12T08:39:19.211Z,33.70
2018-05-12T08:41:48.235Z,34.23
2018-05-12T08:44:16.494Z,35.03
2018-05-12T08:46:45.527Z,33.72
2018-05-12T08:49:14.637Z,34.27
2018-05-12T08:51:42.900Z,33.40
2018-05-12T08:54:11.151Z,35.15
2018-05-12T08:56:40.190Z,34.06
2018-05-12T08:59:08.452Z,32.68
2018-05-12T09:01:36.711Z,32.23
2018-05-12T09:04:04.956Z,34.37
2018-05-12T09:06:33.215Z,34.34
2018-05-12T09:09:01.466Z,34.84
2018-05-12T09:11:29.732Z,34.52
2018-05-12T09:13:58.739Z,33.64
2018-05-12T09:16:27.010Z,32.44
2018-05-12T09:18:55.267Z,28.40
2018-05-12T09:21:23.539Z,25.11
2018-05-12T09:23:51.791Z,24.83
2018-05-12T09:26:20.050Z,25.65
2018-05-12T09:28:48.304Z,29.67
2018-05-12T09:31:18.584Z,32.56
2018-05-12T09:33:46.835Z,34.11
2018-05-12T09:36:15.096Z,33.04
2018-05-12T09:38:44.116Z,35.15
2018-05-12T09:41:12.379Z,35.74
2018-05-12T09:43:41.399Z,35.30
2018-05-12T09:46:09.651Z,33.77
2018-05-12T09:48:38.674Z,32.67
2018-05-12T09:51:06.923Z,33.88
2018-05-12T09:53:35.951Z,34.44
2018-05-12T09:56:04.221Z,35.15
2018-05-12T09:58:32.481Z,32.57
2018-05-12T10:01:01.500Z,33.22
2018-05-12T10:03:30.451Z,33.68
2018-05-12T10:05:59.390Z,34.28
2018-05-12T10:08:27.658Z,32.84
2018-05-12T10:10:56.678Z,31.70
2018-05-12T10:13:24.980Z,31.35
2018-05-12T10:15:53.226Z,29.02
2018-05-12T10:18:21.500Z,28.74
2018-05-12T10:20:50.539Z,31.35
2018-05-12T10:23:18.774Z,33.51
2018-05-12T10:25:47.027Z,34.40
2018-05-12T10:28:15.292Z,31.16
2018-05-12T10:30:43.545Z,29.88
2018-05-12T10:33:11.806Z,31.91
2018-05-12T10:35:40.055Z,32.76
2018-05-12T10:38:09.182Z,33.76
2018-05-12T10:40:37.433Z,34.62
2018-05-12T10:43:05.695Z,33.96
2018-05-12T10:45:33.953Z,34.39
2018-05-12T10:48:02.223Z,32.37
2018-05-12T10:50:30.472Z,31.05
2018-05-12T10:52:59.541Z,31.06
2018-05-12T10:55:27.796Z,31.30
2018-05-12T10:57:56.072Z,30.87
2018-05-12T11:00:24.338Z,31.84
2018-05-12T11:02:52.604Z,31.95
2018-05-12T11:05:20.856Z,30.31
2018-05-12T11:07:49.128Z,31.21
2018-05-12T11:10:17.376Z,27.63
2018-05-12T11:12:45.639Z,26.15
2018-05-12T11:15:13.909Z,27.40
2018-05-12T11:17:42.172Z,29.45
2018-05-12T11:20:11.220Z,28.33
2018-05-12T11:22:39.460Z,27.57
2018-05-12T11:25:08.476Z,29.60
2018-05-12T11:27:36.753Z,31.85
2018-05-12T11:30:04.995Z,30.48
2018-05-12T11:32:33.268Z,28.30
2018-05-12T11:35:01.511Z,27.20
2018-05-12T11:37:32.543Z,29.20
2018-05-12T11:40:00.802Z,31.30
2018-05-12T11:42:29.855Z,33.94
2018-05-12T11:44:58.150Z,30.90
2018-05-12T11:47:26.400Z,31.75
2018-05-12T11:49:54.671Z,31.46
2018-05-12T11:52:22.915Z,32.14
2018-05-12T11:54:51.951Z,31.44
2018-05-12T11:57:20.202Z,29.90
2018-05-12T11:59:50.479Z,28.26
2018-05-12T12:02:18.733Z,27.31
2018-05-12T12:04:47.006Z,29.47
2018-05-12T12:07:15.250Z,29.73
2018-05-12T12:09:44.279Z,28.68
2018-05-12T12:12:12.535Z,29.15
2018-05-12T12:14:41.567Z,28.36
2018-05-12T12:17:09.827Z,29.24
2018-05-12T12:19:38.867Z,28.05
2018-05-12T12:22:07.123Z,28.58
2018-05-12T12:24:35.382Z,29.11
2018-05-12T12:27:04.406Z,29.72
2018-05-12T12:29:33.216Z,30.48
2018-05-12T12:32:01.480Z,29.00
2018-05-12T12:34:29.779Z,28.53
2018-05-12T12:36:58.034Z,28.67
2018-05-12T12:39:26.299Z,27.72
2018-05-12T12:41:55.171Z,26.00
2018-05-12T12:44:24.207Z,25.62
2018-05-12T12:46:52.463Z,26.64
2018-05-12T12:49:21.498Z,27.18
2018-05-12T12:51:49.904Z,27.22
2018-05-12T12:54:18.027Z,28.04
2018-05-12T12:56:47.056Z,27.51
2018-05-12T12:59:15.320Z,27.45
2018-05-12T13:01:43.571Z,26.99
2018-05-12T13:04:12.603Z,26.40
2018-05-12T13:06:40.904Z,27.10
2018-05-12T13:09:09.172Z,27.56
2018-05-12T13:11:37.426Z,28.64
2018-05-12T13:14:06.451Z,28.30
2018-05-12T13:16:34.703Z,27.03
2018-05-12T13:19:03.736Z,26.12
2018-05-12T13:21:32.335Z,25.31
2018-05-12T13:24:00.562Z,25.15
2018-05-12T13:26:29.590Z,25.54
2018-05-12T13:28:57.867Z,25.30
2018-05-12T13:31:26.115Z,26.04
2018-05-12T13:33:55.152Z,27.06
2018-05-12T13:36:23.408Z,27.00
2018-05-12T13:38:52.447Z,26.68
2018-05-12T13:41:20.718Z,26.55
2018-05-12T13:43:48.964Z,26.32
2018-05-12T13:46:18.374Z,26.76
2018-05-12T13:48:47.392Z,26.48
2018-05-12T13:51:15.652Z,27.46
2018-05-12T13:53:43.917Z,27.73
2018-05-12T13:56:12.946Z,27.13
2018-05-12T13:58:41.195Z,26.84
2018-05-12T14:01:10.222Z,27.30
2018-05-12T14:03:39.240Z,27.05
2018-05-12T14:06:07.501Z,26.27
2018-05-12T14:08:35.755Z,26.25
2018-05-12T14:11:04.867Z,25.87
2018-05-12T14:13:33.110Z,25.71
2018-05-12T14:16:01.398Z,25.39
2018-05-12T14:18:30.188Z,25.41
2018-05-12T14:20:58.456Z,25.14
2018-05-12T14:23:26.703Z,25.12
2018-05-12T14:25:54.972Z,24.95
2018-05-12T14:28:23.218Z,24.53
2018-05-12T14:30:51.482Z,25.08
2018-05-12T14:33:19.730Z,25.25
2018-05-12T14:35:47.992Z,25.99
2018-05-12T14:38:16.243Z,26.46
2018-05-12T14:40:45.278Z,27.49
2018-05-12T14:43:13.535Z,28.10
2018-05-12T14:45:42.542Z,27.60
2018-05-12T14:48:10.790Z,28.28
2018-05-12T14:50:39.054Z,27.77
2018-05-12T14:53:07.313Z,26.84
2018-05-12T14:55:35.573Z,27.39
2018-05-12T14:58:03.817Z,27.63
2018-05-12T15:00:32.089Z,27.19
2018-05-12T15:03:00.352Z,27.58
2018-05-12T15:05:28.621Z,27.74
2018-05-12T15:07:56.885Z,27.15
2018-05-12T15:10:25.693Z,26.81
2018-05-12T15:12:53.955Z,25.76
2018-05-12T15:15:22.214Z,26.25
2018-05-12T15:17:50.490Z,26.42
2018-05-12T15:20:19.519Z,26.49
2018-05-12T15:22:47.770Z,25.98
2018-05-12T15:25:16.790Z,25.56
2018-05-12T15:27:45.055Z,25.26
2018-05-12T15:30:13.320Z,25.16
2018-05-12T15:32:42.356Z,24.75
2018-05-12T15:35:10.617Z,24.64
2018-05-12T15:37:39.912Z,24.39
2018-05-12T15:40:08.927Z,24.35
2018-05-12T15:42:37.191Z,24.31
2018-05-12T15:45:05.447Z,24.52
2018-05-12T15:47:33.711Z,24.38
2018-05-12T15:50:02.055Z,24.67
2018-05-12T15:52:30.223Z,24.64
2018-05-12T15:54:58.480Z,24.21
2018-05-12T15:57:27.568Z,24.24
2018-05-12T15:59:55.763Z,24.09
2018-05-12T16:02:24.790Z,23.75
2018-05-12T16:04:53.048Z,23.71
2018-05-12T16:07:22.067Z,23.67
2018-05-12T16:09:50.315Z,23.86
2018-05-12T16:12:19.366Z,23.80
2018-05-12T16:14:47.607Z,23.95
2018-05-12T16:17:15.866Z,24.17
2018-05-12T16:19:44.887Z,24.18
2018-05-12T16:22:13.147Z,24.26
2018-05-12T16:24:42.184Z,24.37
2018-05-12T16:27:10.443Z,24.14
2018-05-12T16:29:38.695Z,23.99
2018-05-12T16:32:06.951Z,24.18
2018-05-12T16:34:35.221Z,24.41
2018-05-12T16:37:03.481Z,24.39
2018-05-12T16:39:31.732Z,24.12
2018-05-12T16:42:00.763Z,24.12
2018-05-12T16:44:29.018Z,24.41
2018-05-12T16:46:58.054Z,24.31
2018-05-12T16:49:26.308Z,24.15
2018-05-12T16:51:54.571Z,24.03
2018-05-12T16:54:23.602Z,23.87
2018-05-12T16:56:51.854Z,23.93
2018-05-12T16:59:20.870Z,23.96
2018-05-12T17:01:49.135Z,24.10
2018-05-12T17:04:17.386Z,23.85
2018-05-12T17:06:45.650Z,23.73
2018-05-12T17:09:13.912Z,23.66
2018-05-12T17:11:42.171Z,23.62
2018-05-12T17:14:10.435Z,23.75
2018-05-12T17:16:39.464Z,23.61
2018-05-12T17:19:07.723Z,23.19
2018-05-12T17:21:35.974Z,23.05
2018-05-12T17:24:04.230Z,23.07
2018-05-12T17:26:32.478Z,22.76
2018-05-12T17:29:00.747Z,22.57
2018-05-12T17:31:29.016Z,22.44
2018-05-12T17:33:58.039Z,22.30
2018-05-12T17:36:26.304Z,22.14
2018-05-12T17:38:54.565Z,22.00
2018-05-12T17:41:23.589Z,21.89
2018-05-12T17:43:51.843Z,21.80
2018-05-12T17:46:20.861Z,21.65
2018-05-12T17:48:49.123Z,21.56
2018-05-12T17:51:18.143Z,21.51
2018-05-12T17:53:46.400Z,21.45
2018-05-12T17:56:15.416Z,21.37
2018-05-12T17:58:43.688Z,21.25
2018-05-12T18:01:12.699Z,21.13
2018-05-12T18:03:40.965Z,20.97
2018-05-12T18:06:09.214Z,20.88
2018-05-12T18:08:37.550Z,20.68
2018-05-12T18:11:05.731Z,20.56
2018-05-12T18:13:33.995Z,20.46
2018-05-12T18:16:02.239Z,20.35
2018-05-12T18:18:30.508Z,20.27
2018-05-12T18:20:58.776Z,20.17
2018-05-12T18:23:27.026Z,20.02
2018-05-12T18:25:55.276Z,19.84
2018-05-12T18:28:24.307Z,19.68
2018-05-12T18:30:52.564Z,19.48
2018-05-12T18:33:21.586Z,19.55
2018-05-12T18:35:49.895Z,19.40
2018-05-12T18:38:18.147Z,19.23
2018-05-12T18:40:46.401Z,19.10
2018-05-12T18:43:15.437Z,18.79
2018-05-12T18:45:43.683Z,18.79
2018-05-12T18:48:11.952Z,18.36
2018-05-12T18:50:41.079Z,18.15
2018-05-12T18:53:09.252Z,18.15
2018-05-12T18:55:37.492Z,17.95
2018-05-12T18:58:06.519Z,17.72
2018-05-12T19:00:34.793Z,17.70
2018-05-12T19:03:03.814Z,17.64
2018-05-12T19:05:32.075Z,17.60
2018-05-12T19:08:01.098Z,17.55
2018-05-12T19:10:29.354Z,17.68
2018-05-12T19:12:57.607Z,17.75
2018-05-12T19:15:25.955Z,17.62
2018-05-12T19:17:54.119Z,17.56
2018-05-12T19:20:22.388Z,17.67
2018-05-12T19:22:50.635Z,17.77
2018-05-12T19:25:18.901Z,17.50
2018-05-12T19:27:48.267Z,17.34
2018-05-12T19:30:16.538Z,17.18
2018-05-12T19:32:44.934Z,17.44
2018-05-12T19:35:13.188Z,17.48
2018-05-12T19:37:41.439Z,17.39
2018-05-12T19:40:09.708Z,17.49
2018-05-12T19:42:37.969Z,17.07
2018-05-12T19:45:06.233Z,16.78
2018-05-12T19:47:34.499Z,17.04
2018-05-12T19:50:02.745Z,16.65
2018-05-12T19:52:31.784Z,16.40
2018-05-12T19:55:00.046Z,16.20
2018-05-12T19:57:29.059Z,16.04
2018-05-12T19:59:57.323Z,16.11
2018-05-12T20:02:26.347Z,15.95
2018-05-12T20:04:54.613Z,15.73
2018-05-12T20:07:22.853Z,15.64
2018-05-12T20:09:52.068Z,15.62
2018-05-12T20:12:22.094Z,15.49
2018-05-12T20:14:51.118Z,15.51
2018-05-12T20:17:19.369Z,15.33
2018-05-12T20:19:48.710Z,15.28
2018-05-12T20:22:16.967Z,15.15
2018-05-12T20:24:45.990Z,15.18
2018-05-12T20:27:14.294Z,15.25
2018-05-12T20:29:42.546Z,15.01
2018-05-12T20:32:10.805Z,14.84
2018-05-12T20:34:39.829Z,14.79
2018-05-12T20:37:08.078Z,14.66
2018-05-12T20:39:37.082Z,14.57
2018-05-12T20:42:05.348Z,14.52
2018-05-12T20:44:34.373Z,14.45
2018-05-12T20:47:02.638Z,14.49
2018-05-12T20:49:31.665Z,14.68
2018-05-12T20:51:59.931Z,14.74
2018-05-12T20:54:28.182Z,14.64
2018-05-12T20:56:57.455Z,14.70
2018-05-12T20:59:25.718Z,14.57
2018-05-12T21:01:53.970Z,14.32
2018-05-12T21:04:22.231Z,14.17
2018-05-12T21:06:51.259Z,14.03
2018-05-12T21:09:19.521Z,13.93
2018-05-12T21:11:48.553Z,13.99
2018-05-12T21:14:16.818Z,13.94
2018-05-12T21:16:45.067Z,13.92
2018-05-12T21:19:14.083Z,13.89
2018-05-12T21:21:42.348Z,13.78
2018-05-12T21:24:12.617Z,13.72
2018-05-12T21:26:40.878Z,13.68
2018-05-12T21:29:09.147Z,13.62
2018-05-12T21:31:38.167Z,13.58
2018-05-12T21:34:06.423Z,13.58
2018-05-12T21:36:35.450Z,13.66
2018-05-12T21:39:03.707Z,13.65
2018-05-12T21:41:31.971Z,13.67
2018-05-12T21:44:01.003Z,13.72
2018-05-12T21:46:29.280Z,13.70
2018-05-12T21:48:57.530Z,13.64
2018-05-12T21:51:26.570Z,13.53
2018-05-12T21:53:54.814Z,13.40
2018-05-12T21:56:23.840Z,13.30
2018-05-12T21:58:52.152Z,13.24
2018-05-12T22:01:21.132Z,13.21
2018-05-12T22:03:49.392Z,13.19
2018-05-12T22:06:18.323Z,13.20
2018-05-12T22:08:46.582Z,13.21
2018-05-12T22:11:14.856Z,13.22
2018-05-12T22:13:43.157Z,13.19
2018-05-12T22:16:11.421Z,13.17
2018-05-12T22:18:39.766Z,13.52
2018-05-12T22:21:08.705Z,13.21
2018-05-12T22:23:37.004Z,13.08
2018-05-12T22:26:05.248Z,12.97
2018-05-12T22:28:33.516Z,12.86
2018-05-12T22:31:01.773Z,12.73
2018-05-12T22:33:30.810Z,12.85
2018-05-12T22:35:59.073Z,12.83
2018-05-12T22:38:28.099Z,12.75
2018-05-12T22:40:56.351Z,12.72
2018-05-12T22:43:25.383Z,12.72
2018-05-12T22:45:53.635Z,12.63
2018-05-12T22:48:22.669Z,12.63
2018-05-12T22:50:50.918Z,12.92
2018-05-12T22:53:19.178Z,12.60
2018-05-12T22:55:48.220Z,12.44
2018-05-12T22:58:16.482Z,12.29
2018-05-12T23:00:44.735Z,12.18
2018-05-12T23:03:13.763Z,12.04
2018-05-12T23:05:42.016Z,11.98
2018-05-12T23:08:11.055Z,11.91
2018-05-12T23:10:39.299Z,12.06
2018-05-12T23:13:08.339Z,12.12
2018-05-12T23:15:36.580Z,11.99
2018-05-12T23:18:04.846Z,11.84
2018-05-12T23:20:33.877Z,11.63
2018-05-12T23:23:02.140Z,11.69
2018-05-12T23:25:30.404Z,11.74
2018-05-12T23:27:59.432Z,11.52
2018-05-12T23:30:27.688Z,11.44
2018-05-12T23:32:56.718Z,11.35
2018-05-12T23:35:24.971Z,11.29
2018-05-12T23:37:54.010Z,11.22
2018-05-12T23:40:22.264Z,11.21
2018-05-12T23:42:50.531Z,11.21
2018-05-12T23:45:19.548Z,11.60
2018-05-12T23:47:47.810Z,11.35
2018-05-12T23:50:16.830Z,11.22
2018-05-12T23:52:45.091Z,11.17
2018-05-12T23:55:13.344Z,11.19
2018-05-12T23:57:41.613Z,11.11
